UKV5044 BIKF-ENBR
Flight info
| Callsign | UKV5044 |
|---|---|
| Flight time | 2h 11m |
| Altitude | 39000 |
| Route | OSKUM3C OSKUM DCT 63N010W DCT VALDI DCT MODNI |
| Aircraft | E190/M-SDE3GILORVW/S |
Departure
| Time | 2026-04-27 21:56 |
|---|---|
| Airport | Keflavik International Airport (BIKF) |
Arrival
| Time | 2026-04-28 00:07 |
|---|---|
| Airport | Bergen Airport, Flesland (ENBR) |
| Time | Latitude | Longitude | Altitude | Speed | Heading |
|---|---|---|---|---|---|
| 2026-04-27 21:21 | 63.99274 | -22.62568 | 126 ft | 0 kts | 50° |
| 2026-04-27 21:39 | 63.99260 | -22.62611 | 139 ft | 4 kts | 62° |
| 2026-04-27 21:39 | 63.99251 | -22.62666 | 139 ft | 4 kts | 93° |
| 2026-04-27 21:39 | 63.99258 | -22.62710 | 139 ft | 2 kts | 150° |
| 2026-04-27 21:39 | 63.99263 | -22.62716 | 139 ft | 0 kts | 151° |
| 2026-04-27 21:43 | 63.99262 | -22.62715 | 139 ft | 1 kts | 151° |
| 2026-04-27 21:43 | 63.99250 | -22.62700 | 139 ft | 3 kts | 151° |
| 2026-04-27 21:44 | 63.99218 | -22.62676 | 139 ft | 6 kts | 176° |
| 2026-04-27 21:44 | 63.99182 | -22.62655 | 139 ft | 4 kts | 130° |
| 2026-04-27 21:44 | 63.99173 | -22.62601 | 139 ft | 4 kts | 105° |
| 2026-04-27 21:44 | 63.99171 | -22.62519 | 139 ft | 6 kts | 84° |
| 2026-04-27 21:45 | 63.99172 | -22.62409 | 139 ft | 8 kts | 90° |
| 2026-04-27 21:45 | 63.99172 | -22.62217 | 139 ft | 10 kts | 89° |
| 2026-04-27 21:45 | 63.99173 | -22.62105 | 139 ft | 11 kts | 90° |
| 2026-04-27 21:45 | 63.99173 | -22.61915 | 139 ft | 13 kts | 89° |
| 2026-04-27 21:46 | 63.99173 | -22.61729 | 145 ft | 11 kts | 90° |
| 2026-04-27 21:46 | 63.99173 | -22.61578 | 146 ft | 9 kts | 90° |
| 2026-04-27 21:46 | 63.99173 | -22.61459 | 149 ft | 6 kts | 90° |
| 2026-04-27 21:46 | 63.99173 | -22.61378 | 151 ft | 3 kts | 90° |
| 2026-04-27 21:47 | 63.99173 | -22.61352 | 151 ft | 1 kts | 90° |
| 2026-04-27 21:47 | 63.99173 | -22.61310 | 152 ft | 4 kts | 89° |
| 2026-04-27 21:47 | 63.99174 | -22.61197 | 154 ft | 5 kts | 89° |
| 2026-04-27 21:47 | 63.99174 | -22.61181 | 155 ft | 0 kts | 89° |
| 2026-04-27 21:48 | 63.99174 | -22.61180 | 155 ft | 0 kts | 89° |
| 2026-04-27 21:49 | 63.99174 | -22.61156 | 155 ft | 3 kts | 89° |
| 2026-04-27 21:49 | 63.99174 | -22.61071 | 157 ft | 7 kts | 91° |
| 2026-04-27 21:49 | 63.99173 | -22.60927 | 160 ft | 11 kts | 90° |
| 2026-04-27 21:49 | 63.99173 | -22.60806 | 163 ft | 0 kts | 90° |
| 2026-04-27 21:51 | 63.99173 | -22.60805 | 163 ft | 1 kts | 90° |
| 2026-04-27 21:52 | 63.99173 | -22.60763 | 165 ft | 5 kts | 90° |
| 2026-04-27 21:52 | 63.99174 | -22.60670 | 168 ft | 7 kts | 90° |
| 2026-04-27 21:52 | 63.99166 | -22.60558 | 172 ft | 6 kts | 128° |
| 2026-04-27 21:52 | 63.99139 | -22.60542 | 173 ft | 0 kts | 177° |
| 2026-04-27 21:54 | 63.98974 | -22.60539 | 172 ft | 61 kts | 179° |
| 2026-04-27 21:54 | 63.98299 | -22.60524 | 174 ft | 132 kts | 179° |
| 2026-04-27 21:54 | 63.97251 | -22.60546 | 662 ft | 162 kts | 175° |
| 2026-04-27 21:54 | 63.96190 | -22.60592 | 565 ft | 152 kts | 177° |
| 2026-04-27 21:55 | 63.95118 | -22.60464 | 106 ft | 158 kts | 163° |
| 2026-04-27 21:55 | 63.94237 | -22.59589 | 542 ft | 140 kts | 145° |
| 2026-04-27 21:55 | 63.93411 | -22.57695 | 375 ft | 201 kts | 130° |
| 2026-04-27 21:55 | 63.92688 | -22.54582 | 415 ft | 248 kts | 119° |
| 2026-04-27 21:56 | 63.91968 | -22.50716 | 559 ft | 283 kts | 117° |
| 2026-04-27 21:56 | 63.90530 | -22.42052 | 800 ft | 249 kts | 115° |
| 2026-04-27 21:56 | 63.90019 | -22.38579 | 1268 ft | 225 kts | 121° |
| 2026-04-27 21:57 | 63.89455 | -22.35452 | 2252 ft | 205 kts | 124° |
| 2026-04-27 21:57 | 63.88903 | -22.32524 | 3247 ft | 204 kts | 125° |
| 2026-04-27 21:57 | 63.88355 | -22.29504 | 4079 ft | 212 kts | 123° |
| 2026-04-27 21:57 | 63.87780 | -22.26203 | 4616 ft | 234 kts | 121° |
| 2026-04-27 21:58 | 63.87189 | -22.22614 | 5217 ft | 251 kts | 120° |
| 2026-04-27 21:58 | 63.86568 | -22.18809 | 5873 ft | 263 kts | 119° |
| 2026-04-27 21:58 | 63.85931 | -22.14855 | 6304 ft | 274 kts | 119° |
| 2026-04-27 21:58 | 63.85288 | -22.10775 | 6332 ft | 272 kts | 118° |
| 2026-04-27 21:59 | 63.84743 | -22.07185 | 6323 ft | 260 kts | 118° |
| 2026-04-27 22:00 | 63.84567 | -22.06048 | 6329 ft | 255 kts | 115° |
| 2026-04-27 22:00 | 63.83996 | -22.02369 | 6336 ft | 242 kts | 120° |
| 2026-04-27 22:00 | 63.83467 | -21.98813 | 6206 ft | 238 kts | 115° |
| 2026-04-27 22:01 | 63.83202 | -21.94972 | 6125 ft | 257 kts | 105° |
| 2026-04-27 22:01 | 63.83064 | -21.90802 | 6176 ft | 271 kts | 104° |
| 2026-04-27 22:01 | 63.82895 | -21.86484 | 6437 ft | 280 kts | 105° |
| 2026-04-27 22:01 | 63.82682 | -21.82061 | 7132 ft | 284 kts | 106° |
| 2026-04-27 22:02 | 63.82447 | -21.77590 | 7901 ft | 287 kts | 107° |
| 2026-04-27 22:02 | 63.82197 | -21.73068 | 8658 ft | 292 kts | 108° |
| 2026-04-27 22:02 | 63.81937 | -21.68534 | 9423 ft | 297 kts | 108° |
| 2026-04-27 22:02 | 63.81665 | -21.63798 | 10219 ft | 302 kts | 108° |
| 2026-04-27 22:03 | 63.81396 | -21.59117 | 10993 ft | 306 kts | 108° |
| 2026-04-27 22:03 | 63.81119 | -21.54309 | 11783 ft | 311 kts | 108° |
| 2026-04-27 22:03 | 63.80827 | -21.49377 | 12360 ft | 326 kts | 108° |
| 2026-04-27 22:03 | 63.80512 | -21.44169 | 12865 ft | 341 kts | 108° |
| 2026-04-27 22:04 | 63.80197 | -21.38776 | 13663 ft | 348 kts | 108° |
| 2026-04-27 22:04 | 63.79880 | -21.33321 | 14509 ft | 352 kts | 108° |
| 2026-04-27 22:04 | 63.79556 | -21.27811 | 15394 ft | 355 kts | 108° |
| 2026-04-27 22:04 | 63.79223 | -21.22248 | 16215 ft | 360 kts | 108° |
| 2026-04-27 22:05 | 63.78882 | -21.16604 | 17021 ft | 364 kts | 108° |
| 2026-04-27 22:05 | 63.78535 | -21.10905 | 17815 ft | 368 kts | 108° |
| 2026-04-27 22:05 | 63.78181 | -21.05141 | 18571 ft | 372 kts | 108° |
| 2026-04-27 22:05 | 63.77818 | -20.99310 | 19255 ft | 376 kts | 109° |
| 2026-04-27 22:06 | 63.77252 | -20.93567 | 19846 ft | 374 kts | 116° |
| 2026-04-27 22:06 | 63.76514 | -20.87896 | 20496 ft | 378 kts | 117° |
| 2026-04-27 22:06 | 63.75773 | -20.82154 | 21137 ft | 383 kts | 117° |
| 2026-04-27 22:06 | 63.75054 | -20.76320 | 21762 ft | 388 kts | 116° |
| 2026-04-27 22:07 | 63.74345 | -20.70413 | 22373 ft | 392 kts | 116° |
| 2026-04-27 22:07 | 63.73632 | -20.64436 | 22970 ft | 396 kts | 116° |
| 2026-04-27 22:07 | 63.72911 | -20.58386 | 23549 ft | 401 kts | 116° |
| 2026-04-27 22:07 | 63.72181 | -20.52292 | 24038 ft | 405 kts | 116° |
| 2026-04-27 22:08 | 63.71438 | -20.46112 | 24520 ft | 411 kts | 115° |
| 2026-04-27 22:08 | 63.70938 | -20.39644 | 25028 ft | 426 kts | 106° |
| 2026-04-27 22:08 | 63.70719 | -20.32911 | 25534 ft | 434 kts | 103° |
| 2026-04-27 22:08 | 63.70555 | -20.26090 | 26021 ft | 438 kts | 103° |
| 2026-04-27 22:09 | 63.70371 | -20.19217 | 26504 ft | 441 kts | 103° |
| 2026-04-27 22:09 | 63.70160 | -20.12293 | 26983 ft | 444 kts | 104° |
| 2026-04-27 22:09 | 63.69934 | -20.05325 | 27423 ft | 447 kts | 104° |
| 2026-04-27 22:09 | 63.69700 | -19.98396 | 27847 ft | 451 kts | 104° |
| 2026-04-27 22:10 | 63.69457 | -19.91325 | 28270 ft | 454 kts | 104° |
| 2026-04-27 22:10 | 63.69290 | -19.86520 | 28569 ft | 457 kts | 104° |
| 2026-04-27 22:10 | 63.68956 | -19.77029 | 29111 ft | 461 kts | 104° |
| 2026-04-27 22:10 | 63.68698 | -19.69803 | 29505 ft | 464 kts | 104° |
| 2026-04-27 22:11 | 63.68433 | -19.62511 | 29794 ft | 468 kts | 103° |
| 2026-04-27 22:11 | 63.68164 | -19.55172 | 30148 ft | 472 kts | 103° |
| 2026-04-27 22:11 | 63.67890 | -19.47794 | 30513 ft | 474 kts | 103° |
| 2026-04-27 22:11 | 63.67612 | -19.40392 | 30861 ft | 475 kts | 103° |
| 2026-04-27 22:12 | 63.67330 | -19.32960 | 31138 ft | 477 kts | 104° |
| 2026-04-27 22:12 | 63.67040 | -19.25502 | 31444 ft | 479 kts | 104° |
| 2026-04-27 22:12 | 63.66745 | -19.18007 | 31737 ft | 482 kts | 104° |
| 2026-04-27 22:12 | 63.66444 | -19.10473 | 32011 ft | 483 kts | 104° |
| 2026-04-27 22:13 | 63.66138 | -19.02922 | 32253 ft | 485 kts | 104° |
| 2026-04-27 22:13 | 63.65832 | -18.95362 | 32595 ft | 485 kts | 104° |
| 2026-04-27 22:13 | 63.65525 | -18.87817 | 32934 ft | 484 kts | 104° |
| 2026-04-27 22:13 | 63.65211 | -18.80283 | 33152 ft | 484 kts | 104° |
| 2026-04-27 22:14 | 63.64889 | -18.72713 | 33362 ft | 486 kts | 104° |
| 2026-04-27 22:14 | 63.64570 | -18.65156 | 33705 ft | 485 kts | 104° |
| 2026-04-27 22:14 | 63.64245 | -18.57616 | 34033 ft | 484 kts | 104° |
| 2026-04-27 22:14 | 63.63916 | -18.50087 | 34334 ft | 483 kts | 104° |
| 2026-04-27 22:15 | 63.63584 | -18.42577 | 34641 ft | 482 kts | 104° |
| 2026-04-27 22:15 | 63.63252 | -18.35086 | 34960 ft | 480 kts | 104° |
| 2026-04-27 22:15 | 63.62916 | -18.27629 | 35276 ft | 479 kts | 104° |
| 2026-04-27 22:15 | 63.62578 | -18.20195 | 35575 ft | 477 kts | 104° |
| 2026-04-27 22:16 | 63.62238 | -18.12774 | 35887 ft | 476 kts | 104° |
| 2026-04-27 22:16 | 63.61897 | -18.05378 | 36171 ft | 475 kts | 104° |
| 2026-04-27 22:16 | 63.61546 | -17.98007 | 36391 ft | 474 kts | 104° |
| 2026-04-27 22:16 | 63.61194 | -17.90654 | 36671 ft | 473 kts | 104° |
| 2026-04-27 22:17 | 63.60844 | -17.83321 | 36965 ft | 471 kts | 103° |
| 2026-04-27 22:17 | 63.60492 | -17.75996 | 37236 ft | 470 kts | 104° |
| 2026-04-27 22:17 | 63.60128 | -17.68708 | 37505 ft | 469 kts | 104° |
| 2026-04-27 22:17 | 63.59771 | -17.61434 | 37761 ft | 468 kts | 104° |
| 2026-04-27 22:18 | 63.59412 | -17.54178 | 38015 ft | 467 kts | 103° |
| 2026-04-27 22:18 | 63.59052 | -17.46937 | 38270 ft | 466 kts | 104° |
| 2026-04-27 22:18 | 63.58682 | -17.39718 | 38514 ft | 465 kts | 104° |
| 2026-04-27 22:18 | 63.58312 | -17.32504 | 38739 ft | 464 kts | 104° |
| 2026-04-27 22:19 | 63.57946 | -17.25311 | 38910 ft | 464 kts | 104° |
| 2026-04-27 22:19 | 63.57576 | -17.18199 | 39252 ft | 453 kts | 104° |
| 2026-04-27 22:19 | 63.57192 | -17.11132 | 39190 ft | 458 kts | 103° |
| 2026-04-27 22:20 | 63.56418 | -16.96794 | 39176 ft | 467 kts | 103° |
| 2026-04-27 22:20 | 63.56022 | -16.89502 | 39058 ft | 474 kts | 103° |
| 2026-04-27 22:20 | 63.55621 | -16.82143 | 39095 ft | 477 kts | 103° |
| 2026-04-27 22:21 | 63.54772 | -16.67271 | 39090 ft | 482 kts | 103° |
| 2026-04-27 22:21 | 63.53906 | -16.52347 | 39093 ft | 483 kts | 103° |
| 2026-04-27 22:22 | 63.53043 | -16.37418 | 39097 ft | 482 kts | 103° |
| 2026-04-27 22:22 | 63.52165 | -16.22545 | 39091 ft | 481 kts | 104° |
| 2026-04-27 22:23 | 63.51271 | -16.07722 | 39095 ft | 480 kts | 104° |
| 2026-04-27 22:23 | 63.50361 | -15.93036 | 39106 ft | 478 kts | 104° |
| 2026-04-27 22:24 | 63.49468 | -15.78299 | 39104 ft | 477 kts | 104° |
| 2026-04-27 22:24 | 63.48518 | -15.63635 | 39106 ft | 475 kts | 104° |
| 2026-04-27 22:25 | 63.47585 | -15.49031 | 39089 ft | 473 kts | 104° |
| 2026-04-27 22:25 | 63.46636 | -15.34531 | 39119 ft | 470 kts | 104° |
| 2026-04-27 22:26 | 63.45655 | -15.19965 | 39134 ft | 477 kts | 103° |
| 2026-04-27 22:26 | 63.44671 | -15.05257 | 39120 ft | 479 kts | 103° |
| 2026-04-27 22:27 | 63.43674 | -14.90539 | 39127 ft | 479 kts | 104° |
| 2026-04-27 22:27 | 63.42638 | -14.75861 | 39130 ft | 477 kts | 104° |
| 2026-04-27 22:28 | 63.41593 | -14.61267 | 39131 ft | 474 kts | 103° |
| 2026-04-27 22:28 | 63.40551 | -14.46752 | 39142 ft | 472 kts | 103° |
| 2026-04-27 22:29 | 63.39480 | -14.32335 | 39139 ft | 470 kts | 103° |
| 2026-04-27 22:29 | 63.38414 | -14.17862 | 39160 ft | 475 kts | 104° |
| 2026-04-27 22:30 | 63.37323 | -14.03260 | 39159 ft | 479 kts | 104° |
| 2026-04-27 22:30 | 63.36217 | -13.88631 | 39158 ft | 478 kts | 103° |
| 2026-04-27 22:31 | 63.35092 | -13.74066 | 39143 ft | 476 kts | 103° |
| 2026-04-27 22:31 | 63.34148 | -13.62034 | 39164 ft | 474 kts | 103° |
| 2026-04-27 22:32 | 63.32996 | -13.47588 | 39179 ft | 476 kts | 103° |
| 2026-04-27 22:32 | 63.31637 | -13.30651 | 39193 ft | 481 kts | 103° |
| 2026-04-27 22:33 | 63.30448 | -13.15999 | 39170 ft | 481 kts | 103° |
| 2026-04-27 22:33 | 63.29436 | -13.03766 | 39170 ft | 479 kts | 104° |
| 2026-04-27 22:34 | 63.28223 | -12.89223 | 39161 ft | 478 kts | 103° |
| 2026-04-27 22:34 | 63.26993 | -12.74731 | 39207 ft | 483 kts | 104° |
| 2026-04-27 22:35 | 63.25712 | -12.59925 | 39185 ft | 486 kts | 103° |
| 2026-04-27 22:35 | 63.24444 | -12.45281 | 39193 ft | 486 kts | 104° |
| 2026-04-27 22:36 | 63.23148 | -12.30610 | 39192 ft | 484 kts | 104° |
| 2026-04-27 22:36 | 63.21848 | -12.16014 | 39183 ft | 481 kts | 103° |
| 2026-04-27 22:37 | 63.20533 | -12.01463 | 39216 ft | 484 kts | 103° |
| 2026-04-27 22:37 | 63.19207 | -11.86777 | 39238 ft | 488 kts | 103° |
| 2026-04-27 22:38 | 63.17878 | -11.72030 | 39222 ft | 488 kts | 103° |
| 2026-04-27 22:38 | 63.16485 | -11.57346 | 39216 ft | 487 kts | 103° |
| 2026-04-27 22:39 | 63.15109 | -11.42713 | 39227 ft | 484 kts | 104° |
| 2026-04-27 22:39 | 63.13697 | -11.28191 | 39228 ft | 482 kts | 103° |
| 2026-04-27 22:40 | 63.12287 | -11.13654 | 39245 ft | 486 kts | 103° |
| 2026-04-27 22:40 | 63.10852 | -10.98981 | 39256 ft | 490 kts | 104° |
| 2026-04-27 22:41 | 63.09402 | -10.84370 | 39246 ft | 490 kts | 104° |
| 2026-04-27 22:41 | 63.07921 | -10.69715 | 39240 ft | 488 kts | 104° |
| 2026-04-27 22:42 | 63.06473 | -10.55127 | 39248 ft | 485 kts | 104° |
| 2026-04-27 22:42 | 63.04957 | -10.40672 | 39239 ft | 483 kts | 104° |
| 2026-04-27 22:43 | 63.03464 | -10.26318 | 39260 ft | 479 kts | 103° |
| 2026-04-27 22:43 | 63.01943 | -10.11996 | 39265 ft | 483 kts | 104° |
| 2026-04-27 22:44 | 63.00368 | -9.97556 | 39276 ft | 486 kts | 110° |
| 2026-04-27 22:44 | 62.97897 | -9.83716 | 39261 ft | 487 kts | 111° |
| 2026-04-27 22:45 | 62.95778 | -9.69627 | 39270 ft | 482 kts | 107° |
| 2026-04-27 22:45 | 62.93853 | -9.55546 | 39273 ft | 480 kts | 107° |
| 2026-04-27 22:46 | 62.91943 | -9.41616 | 39275 ft | 479 kts | 107° |
| 2026-04-27 22:46 | 62.90011 | -9.27677 | 39275 ft | 477 kts | 107° |
| 2026-04-27 22:47 | 62.88074 | -9.13810 | 39294 ft | 476 kts | 107° |
| 2026-04-27 22:47 | 62.86108 | -8.99858 | 39303 ft | 482 kts | 107° |
| 2026-04-27 22:48 | 62.84123 | -8.85895 | 39289 ft | 476 kts | 106° |
| 2026-04-27 22:48 | 62.82141 | -8.72072 | 39302 ft | 476 kts | 106° |
| 2026-04-27 22:49 | 62.80153 | -8.58294 | 39303 ft | 474 kts | 106° |
| 2026-04-27 22:49 | 62.78168 | -8.44615 | 39305 ft | 471 kts | 106° |
| 2026-04-27 22:50 | 62.76174 | -8.31023 | 39318 ft | 469 kts | 107° |
| 2026-04-27 22:50 | 62.74181 | -8.17386 | 39328 ft | 474 kts | 106° |
| 2026-04-27 22:51 | 62.72140 | -8.03657 | 39321 ft | 478 kts | 107° |
| 2026-04-27 22:51 | 62.70077 | -7.89893 | 39323 ft | 477 kts | 107° |
| 2026-04-27 22:52 | 62.68006 | -7.76188 | 39320 ft | 475 kts | 107° |
| 2026-04-27 22:52 | 62.65931 | -7.62577 | 39318 ft | 473 kts | 107° |
| 2026-04-27 22:53 | 62.63849 | -7.49048 | 39329 ft | 470 kts | 107° |
| 2026-04-27 22:53 | 62.61777 | -7.35613 | 39330 ft | 468 kts | 107° |
| 2026-04-27 22:54 | 62.59680 | -7.22188 | 39345 ft | 472 kts | 107° |
| 2026-04-27 22:54 | 62.57558 | -7.08636 | 39330 ft | 476 kts | 107° |
| 2026-04-27 22:55 | 62.55446 | -6.95122 | 39336 ft | 476 kts | 107° |
| 2026-04-27 22:55 | 62.53283 | -6.81591 | 39334 ft | 474 kts | 108° |
| 2026-04-27 22:56 | 62.51104 | -6.68148 | 39323 ft | 472 kts | 108° |
| 2026-04-27 22:56 | 62.48954 | -6.54777 | 39335 ft | 472 kts | 107° |
| 2026-04-27 22:57 | 62.46788 | -6.41319 | 39357 ft | 477 kts | 107° |
| 2026-04-27 22:57 | 62.44588 | -6.27747 | 39344 ft | 479 kts | 107° |
| 2026-04-27 22:58 | 62.42361 | -6.14189 | 39347 ft | 479 kts | 107° |
| 2026-04-27 22:58 | 62.40129 | -6.00686 | 39342 ft | 476 kts | 108° |
| 2026-04-27 22:59 | 62.37885 | -5.87317 | 39351 ft | 473 kts | 107° |
| 2026-04-27 22:59 | 62.35649 | -5.74011 | 39348 ft | 472 kts | 107° |
| 2026-04-27 23:00 | 62.32215 | -5.53983 | 39375 ft | 479 kts | 107° |
| 2026-04-27 23:00 | 62.29915 | -5.40503 | 39362 ft | 480 kts | 107° |
| 2026-04-27 23:01 | 62.27607 | -5.27059 | 39363 ft | 479 kts | 107° |
| 2026-04-27 23:01 | 62.25276 | -5.13692 | 39362 ft | 477 kts | 108° |
| 2026-04-27 23:02 | 62.22951 | -5.00409 | 39366 ft | 475 kts | 107° |
| 2026-04-27 23:02 | 62.20619 | -4.87191 | 39375 ft | 473 kts | 107° |
| 2026-04-27 23:03 | 62.18272 | -4.73963 | 39382 ft | 478 kts | 107° |
| 2026-04-27 23:03 | 62.15893 | -4.60605 | 39382 ft | 482 kts | 107° |
| 2026-04-27 23:04 | 62.13538 | -4.47245 | 39378 ft | 479 kts | 108° |
| 2026-04-27 23:04 | 62.11067 | -4.34068 | 39371 ft | 476 kts | 107° |
| 2026-04-27 23:05 | 62.08658 | -4.20900 | 39378 ft | 475 kts | 107° |
| 2026-04-27 23:05 | 62.06259 | -4.07805 | 39396 ft | 474 kts | 107° |
| 2026-04-27 23:06 | 62.03847 | -3.94755 | 39404 ft | 479 kts | 107° |
| 2026-04-27 23:06 | 62.01369 | -3.81527 | 39384 ft | 481 kts | 107° |
| 2026-04-27 23:07 | 61.98880 | -3.68287 | 39394 ft | 481 kts | 107° |
| 2026-04-27 23:07 | 61.96396 | -3.55105 | 39389 ft | 480 kts | 107° |
| 2026-04-27 23:08 | 61.93894 | -3.41981 | 39390 ft | 478 kts | 107° |
| 2026-04-27 23:08 | 61.91401 | -3.28961 | 39395 ft | 475 kts | 107° |
| 2026-04-27 23:09 | 61.88893 | -3.15989 | 39402 ft | 476 kts | 107° |
| 2026-04-27 23:09 | 61.86367 | -3.02961 | 39415 ft | 479 kts | 107° |
| 2026-04-27 23:10 | 61.83824 | -2.89880 | 39397 ft | 480 kts | 107° |
| 2026-04-27 23:10 | 61.81250 | -2.76851 | 39393 ft | 478 kts | 107° |
| 2026-04-27 23:11 | 61.78687 | -2.63909 | 39400 ft | 475 kts | 107° |
| 2026-04-27 23:11 | 61.76176 | -2.51035 | 39408 ft | 473 kts | 107° |
| 2026-04-27 23:12 | 61.73628 | -2.38250 | 39409 ft | 472 kts | 108° |
| 2026-04-27 23:12 | 61.71031 | -2.25558 | 39414 ft | 473 kts | 107° |
| 2026-04-27 23:13 | 61.68439 | -2.12837 | 39427 ft | 478 kts | 108° |
| 2026-04-27 23:13 | 61.65820 | -2.00006 | 39409 ft | 475 kts | 107° |
| 2026-04-27 23:14 | 61.63193 | -1.87254 | 39414 ft | 475 kts | 108° |
| 2026-04-27 23:14 | 61.60469 | -1.74605 | 39411 ft | 474 kts | 108° |
| 2026-04-27 23:15 | 61.57828 | -1.61978 | 39414 ft | 471 kts | 107° |
| 2026-04-27 23:15 | 61.55225 | -1.49384 | 39419 ft | 469 kts | 107° |
| 2026-04-27 23:16 | 61.52598 | -1.36877 | 39416 ft | 469 kts | 108° |
| 2026-04-27 23:16 | 61.49976 | -1.24406 | 39414 ft | 467 kts | 107° |
| 2026-04-27 23:17 | 61.47314 | -1.11999 | 39430 ft | 468 kts | 108° |
| 2026-04-27 23:17 | 61.44635 | -0.99473 | 39423 ft | 474 kts | 108° |
| 2026-04-27 23:18 | 61.41934 | -0.86891 | 39421 ft | 475 kts | 108° |
| 2026-04-27 23:18 | 61.39197 | -0.74333 | 39418 ft | 475 kts | 108° |
| 2026-04-27 23:19 | 61.36474 | -0.61831 | 39420 ft | 473 kts | 108° |
| 2026-04-27 23:19 | 61.33730 | -0.49422 | 39425 ft | 471 kts | 109° |
| 2026-04-27 23:20 | 61.31018 | -0.37149 | 39429 ft | 469 kts | 108° |
| 2026-04-27 23:20 | 61.28295 | -0.24867 | 39428 ft | 467 kts | 109° |
| 2026-04-27 23:21 | 61.25536 | -0.12658 | 39430 ft | 466 kts | 109° |
| 2026-04-27 23:21 | 61.22807 | -0.00486 | 39470 ft | 466 kts | 108° |
| 2026-04-27 23:22 | 61.21200 | 0.05429 | 39460 ft | 477 kts | 119° |
| 2026-04-27 23:22 | 61.19294 | 0.11090 | 39445 ft | 480 kts | 119° |
| 2026-04-27 23:22 | 61.15745 | 0.22760 | 39431 ft | 477 kts | 114° |
| 2026-04-27 23:23 | 61.12435 | 0.34635 | 39436 ft | 476 kts | 114° |
| 2026-04-27 23:23 | 61.09711 | 0.44505 | 39437 ft | 474 kts | 114° |
| 2026-04-27 23:24 | 61.06439 | 0.56319 | 39434 ft | 473 kts | 114° |
| 2026-04-27 23:24 | 61.03166 | 0.68070 | 39439 ft | 471 kts | 114° |
| 2026-04-27 23:25 | 60.99895 | 0.79762 | 39451 ft | 470 kts | 114° |
| 2026-04-27 23:25 | 60.96622 | 0.91393 | 39447 ft | 469 kts | 114° |
| 2026-04-27 23:26 | 60.93345 | 1.02972 | 39449 ft | 468 kts | 114° |
| 2026-04-27 23:26 | 60.90069 | 1.14506 | 39453 ft | 467 kts | 114° |
| 2026-04-27 23:27 | 60.86784 | 1.25996 | 39453 ft | 466 kts | 114° |
| 2026-04-27 23:27 | 60.83500 | 1.37434 | 39495 ft | 465 kts | 114° |
| 2026-04-27 23:28 | 60.80183 | 1.48940 | 39468 ft | 472 kts | 115° |
| 2026-04-27 23:28 | 60.76832 | 1.60525 | 39458 ft | 474 kts | 115° |
| 2026-04-27 23:29 | 60.73458 | 1.72099 | 39459 ft | 473 kts | 115° |
| 2026-04-27 23:29 | 60.70086 | 1.83607 | 39459 ft | 471 kts | 115° |
| 2026-04-27 23:30 | 60.68404 | 1.89354 | 39269 ft | 470 kts | 115° |
| 2026-04-27 23:30 | 60.66738 | 1.95024 | 38868 ft | 459 kts | 115° |
| 2026-04-27 23:30 | 60.65107 | 2.00524 | 38296 ft | 452 kts | 114° |
| 2026-04-27 23:30 | 60.63498 | 2.05976 | 37799 ft | 445 kts | 114° |
| 2026-04-27 23:31 | 60.61905 | 2.11372 | 37113 ft | 442 kts | 113° |
| 2026-04-27 23:31 | 60.60348 | 2.16615 | 36583 ft | 437 kts | 113° |
| 2026-04-27 23:31 | 60.58778 | 2.21878 | 35992 ft | 433 kts | 113° |
| 2026-04-27 23:31 | 60.57232 | 2.27086 | 35406 ft | 429 kts | 112° |
| 2026-04-27 23:32 | 60.55689 | 2.32259 | 34863 ft | 426 kts | 112° |
| 2026-04-27 23:32 | 60.54156 | 2.37377 | 34242 ft | 424 kts | 112° |
| 2026-04-27 23:32 | 60.52627 | 2.42479 | 33738 ft | 421 kts | 112° |
| 2026-04-27 23:32 | 60.51096 | 2.47580 | 33135 ft | 427 kts | 112° |
| 2026-04-27 23:33 | 60.49538 | 2.52751 | 32596 ft | 432 kts | 113° |
| 2026-04-27 23:33 | 60.47961 | 2.57978 | 32001 ft | 436 kts | 114° |
| 2026-04-27 23:33 | 60.46370 | 2.63228 | 31418 ft | 437 kts | 114° |
| 2026-04-27 23:33 | 60.44768 | 2.68467 | 30840 ft | 438 kts | 115° |
| 2026-04-27 23:34 | 60.43166 | 2.73733 | 30182 ft | 440 kts | 114° |
| 2026-04-27 23:34 | 60.41565 | 2.78960 | 29684 ft | 435 kts | 115° |
| 2026-04-27 23:34 | 60.39979 | 2.84168 | 29087 ft | 435 kts | 115° |
| 2026-04-27 23:34 | 60.38385 | 2.89388 | 28503 ft | 438 kts | 115° |
| 2026-04-27 23:35 | 60.36771 | 2.94621 | 27946 ft | 438 kts | 115° |
| 2026-04-27 23:35 | 60.35181 | 2.99770 | 27340 ft | 436 kts | 116° |
| 2026-04-27 23:35 | 60.33579 | 3.04925 | 26778 ft | 431 kts | 116° |
| 2026-04-27 23:35 | 60.31993 | 3.10024 | 26204 ft | 427 kts | 116° |
| 2026-04-27 23:36 | 60.30421 | 3.15069 | 25648 ft | 423 kts | 116° |
| 2026-04-27 23:36 | 60.28863 | 3.20071 | 25084 ft | 420 kts | 116° |
| 2026-04-27 23:36 | 60.27318 | 3.25031 | 24535 ft | 416 kts | 117° |
| 2026-04-27 23:36 | 60.25776 | 3.29955 | 23965 ft | 413 kts | 117° |
| 2026-04-27 23:37 | 60.24255 | 3.34821 | 23469 ft | 407 kts | 117° |
| 2026-04-27 23:37 | 60.22751 | 3.39629 | 22868 ft | 405 kts | 117° |
| 2026-04-27 23:37 | 60.21256 | 3.44377 | 22366 ft | 400 kts | 118° |
| 2026-04-27 23:37 | 60.19754 | 3.49082 | 21824 ft | 397 kts | 118° |
| 2026-04-27 23:38 | 60.18275 | 3.53739 | 21290 ft | 394 kts | 118° |
| 2026-04-27 23:38 | 60.16810 | 3.58356 | 20777 ft | 390 kts | 118° |
| 2026-04-27 23:38 | 60.15365 | 3.62936 | 20255 ft | 386 kts | 119° |
| 2026-04-27 23:38 | 60.13923 | 3.67451 | 19753 ft | 383 kts | 120° |
| 2026-04-27 23:39 | 60.12490 | 3.71916 | 19243 ft | 379 kts | 120° |
| 2026-04-27 23:39 | 60.11070 | 3.76329 | 18741 ft | 374 kts | 120° |
| 2026-04-27 23:39 | 60.09689 | 3.80701 | 18240 ft | 367 kts | 120° |
| 2026-04-27 23:39 | 60.08317 | 3.84977 | 17758 ft | 364 kts | 120° |
| 2026-04-27 23:40 | 60.06957 | 3.89227 | 17283 ft | 361 kts | 120° |
| 2026-04-27 23:40 | 60.05600 | 3.93450 | 16770 ft | 360 kts | 120° |
| 2026-04-27 23:40 | 60.04545 | 3.97941 | 16292 ft | 353 kts | 104° |
| 2026-04-27 23:40 | 60.04274 | 4.02726 | 15802 ft | 345 kts | 81° |
| 2026-04-27 23:41 | 60.04743 | 4.07375 | 15395 ft | 340 kts | 73° |
| 2026-04-27 23:41 | 60.05351 | 4.11948 | 14902 ft | 338 kts | 72° |
| 2026-04-27 23:41 | 60.05945 | 4.16437 | 14458 ft | 330 kts | 73° |
| 2026-04-27 23:41 | 60.06498 | 4.20846 | 14010 ft | 323 kts | 74° |
| 2026-04-27 23:42 | 60.07016 | 4.25168 | 13614 ft | 315 kts | 74° |
| 2026-04-27 23:42 | 60.07509 | 4.29393 | 13167 ft | 309 kts | 75° |
| 2026-04-27 23:42 | 60.07979 | 4.33483 | 12777 ft | 303 kts | 75° |
| 2026-04-27 23:42 | 60.08446 | 4.37612 | 12381 ft | 298 kts | 75° |
| 2026-04-27 23:43 | 60.08905 | 4.41621 | 11995 ft | 293 kts | 74° |
| 2026-04-27 23:43 | 60.09381 | 4.45582 | 11613 ft | 291 kts | 74° |
| 2026-04-27 23:43 | 60.09848 | 4.49468 | 11233 ft | 291 kts | 74° |
| 2026-04-27 23:43 | 60.10318 | 4.53407 | 10847 ft | 291 kts | 74° |
| 2026-04-27 23:44 | 60.10787 | 4.57343 | 10456 ft | 290 kts | 74° |
| 2026-04-27 23:44 | 60.11242 | 4.61208 | 10406 ft | 280 kts | 74° |
| 2026-04-27 23:44 | 60.11691 | 4.65030 | 10425 ft | 284 kts | 76° |
| 2026-04-27 23:44 | 60.11766 | 4.69017 | 10479 ft | 288 kts | 94° |
| 2026-04-27 23:45 | 60.11453 | 4.72879 | 10442 ft | 274 kts | 99° |
| 2026-04-27 23:45 | 60.11067 | 4.76527 | 10406 ft | 262 kts | 99° |
| 2026-04-27 23:45 | 60.10534 | 4.79958 | 10367 ft | 258 kts | 120° |
| 2026-04-27 23:45 | 60.09256 | 4.82422 | 10503 ft | 262 kts | 151° |
| 2026-04-27 23:46 | 60.07489 | 4.83307 | 10520 ft | 264 kts | 178° |
| 2026-04-27 23:46 | 60.05653 | 4.83278 | 10549 ft | 264 kts | 183° |
| 2026-04-27 23:46 | 60.03830 | 4.83673 | 10525 ft | 265 kts | 166° |
| 2026-04-27 23:46 | 60.02059 | 4.84767 | 10409 ft | 267 kts | 160° |
| 2026-04-27 23:47 | 60.00338 | 4.86041 | 10428 ft | 263 kts | 159° |
| 2026-04-27 23:47 | 59.98707 | 4.87659 | 10423 ft | 262 kts | 144° |
| 2026-04-27 23:47 | 59.97270 | 4.89903 | 10453 ft | 263 kts | 139° |
| 2026-04-27 23:47 | 59.95886 | 4.92300 | 10449 ft | 264 kts | 138° |
| 2026-04-27 23:48 | 59.94601 | 4.94882 | 10451 ft | 262 kts | 124° |
| 2026-04-27 23:48 | 59.93620 | 4.97938 | 10458 ft | 262 kts | 118° |
| 2026-04-27 23:48 | 59.92719 | 5.01094 | 10455 ft | 262 kts | 118° |
| 2026-04-27 23:48 | 59.91884 | 5.04302 | 10425 ft | 260 kts | 107° |
| 2026-04-27 23:49 | 59.91475 | 5.07791 | 10447 ft | 259 kts | 97° |
| 2026-04-27 23:49 | 59.91259 | 5.11347 | 10425 ft | 257 kts | 86° |
| 2026-04-27 23:49 | 59.91802 | 5.14634 | 10435 ft | 250 kts | 49° |
| 2026-04-27 23:49 | 59.93157 | 5.16594 | 10466 ft | 246 kts | 18° |
| 2026-04-27 23:50 | 59.94836 | 5.17029 | 10499 ft | 244 kts | 357° |
| 2026-04-27 23:50 | 59.96541 | 5.16847 | 10444 ft | 248 kts | 356° |
| 2026-04-27 23:50 | 59.98251 | 5.16638 | 10413 ft | 244 kts | 356° |
| 2026-04-27 23:50 | 59.99942 | 5.16470 | 10422 ft | 244 kts | 356° |
| 2026-04-27 23:51 | 60.01637 | 5.16316 | 10441 ft | 244 kts | 356° |
| 2026-04-27 23:51 | 60.03336 | 5.16166 | 10431 ft | 244 kts | 356° |
| 2026-04-27 23:51 | 60.05033 | 5.16015 | 10444 ft | 244 kts | 356° |
| 2026-04-27 23:51 | 60.06729 | 5.16046 | 10420 ft | 245 kts | 11° |
| 2026-04-27 23:52 | 60.08201 | 5.17703 | 10430 ft | 248 kts | 45° |
| 2026-04-27 23:52 | 60.09153 | 5.20582 | 10465 ft | 246 kts | 61° |
| 2026-04-27 23:52 | 60.09849 | 5.23651 | 10414 ft | 237 kts | 63° |
| 2026-04-27 23:52 | 60.10656 | 5.26421 | 10372 ft | 228 kts | 40° |
| 2026-04-27 23:53 | 60.12057 | 5.27714 | 10454 ft | 225 kts | 360° |
| 2026-04-27 23:53 | 60.13621 | 5.27217 | 10549 ft | 231 kts | 345° |
| 2026-04-27 23:53 | 60.15207 | 5.26585 | 10574 ft | 233 kts | 352° |
| 2026-04-27 23:53 | 60.16841 | 5.26372 | 10417 ft | 237 kts | 358° |
| 2026-04-27 23:54 | 60.18450 | 5.26124 | 10434 ft | 230 kts | 349° |
| 2026-04-27 23:54 | 60.20040 | 5.25400 | 9923 ft | 244 kts | 346° |
| 2026-04-27 23:54 | 60.21764 | 5.24592 | 9018 ft | 263 kts | 347° |
| 2026-04-27 23:54 | 60.23615 | 5.23834 | 8092 ft | 280 kts | 349° |
| 2026-04-27 23:55 | 60.25592 | 5.23397 | 7120 ft | 294 kts | 4° |
| 2026-04-27 23:55 | 60.27584 | 5.24563 | 6029 ft | 308 kts | 28° |
| 2026-04-27 23:55 | 60.29228 | 5.27415 | 4864 ft | 320 kts | 53° |
| 2026-04-27 23:55 | 60.30125 | 5.31381 | 4043 ft | 304 kts | 78° |
| 2026-04-27 23:56 | 60.30105 | 5.35485 | 3208 ft | 288 kts | 104° |
| 2026-04-27 23:56 | 60.29197 | 5.38892 | 2736 ft | 264 kts | 134° |
| 2026-04-27 23:56 | 60.27900 | 5.41163 | 2692 ft | 232 kts | 146° |
| 2026-04-27 23:56 | 60.26468 | 5.42140 | 2617 ft | 217 kts | 179° |
| 2026-04-27 23:57 | 60.24985 | 5.42016 | 2790 ft | 207 kts | 179° |
| 2026-04-27 23:57 | 60.23609 | 5.42600 | 3022 ft | 200 kts | 161° |
| 2026-04-27 23:57 | 60.22291 | 5.43455 | 3209 ft | 198 kts | 162° |
| 2026-04-27 23:57 | 60.20980 | 5.44287 | 3367 ft | 198 kts | 162° |
| 2026-04-27 23:58 | 60.19642 | 5.45130 | 3495 ft | 211 kts | 162° |
| 2026-04-27 23:58 | 60.18225 | 5.46026 | 3521 ft | 215 kts | 162° |
| 2026-04-27 23:58 | 60.16786 | 5.46933 | 3543 ft | 217 kts | 162° |
| 2026-04-27 23:58 | 60.15338 | 5.47842 | 3557 ft | 220 kts | 162° |
| 2026-04-27 23:59 | 60.13869 | 5.48769 | 3572 ft | 222 kts | 162° |
| 2026-04-27 23:59 | 60.12382 | 5.49702 | 3301 ft | 228 kts | 162° |
| 2026-04-27 23:59 | 60.10808 | 5.50669 | 2697 ft | 239 kts | 167° |
| 2026-04-27 23:59 | 60.09272 | 5.50563 | 3039 ft | 214 kts | 201° |
| 2026-04-28 00:00 | 60.08069 | 5.48763 | 2996 ft | 220 kts | 236° |
| 2026-04-28 00:00 | 60.07514 | 5.45962 | 3011 ft | 216 kts | 252° |
| 2026-04-28 00:00 | 60.06962 | 5.43168 | 3013 ft | 216 kts | 247° |
| 2026-04-28 00:00 | 60.06380 | 5.40393 | 2981 ft | 215 kts | 248° |
| 2026-04-28 00:01 | 60.05798 | 5.37631 | 2974 ft | 216 kts | 248° |
| 2026-04-28 00:01 | 60.05248 | 5.34828 | 2972 ft | 216 kts | 258° |
| 2026-04-28 00:01 | 60.05370 | 5.31964 | 3027 ft | 203 kts | 295° |
| 2026-04-28 00:01 | 60.06302 | 5.29917 | 3077 ft | 201 kts | 324° |
| 2026-04-28 00:02 | 60.07608 | 5.28956 | 3129 ft | 203 kts | 352° |
| 2026-04-28 00:02 | 60.09028 | 5.28702 | 3092 ft | 207 kts | 352° |
| 2026-04-28 00:02 | 60.10439 | 5.28153 | 2969 ft | 204 kts | 347° |
| 2026-04-28 00:02 | 60.11822 | 5.27631 | 3004 ft | 199 kts | 351° |
| 2026-04-28 00:03 | 60.13149 | 5.27244 | 2970 ft | 186 kts | 351° |
| 2026-04-28 00:03 | 60.14420 | 5.26814 | 2966 ft | 185 kts | 349° |
| 2026-04-28 00:03 | 60.15663 | 5.26387 | 2789 ft | 177 kts | 350° |
| 2026-04-28 00:03 | 60.16844 | 5.25994 | 2532 ft | 168 kts | 350° |
| 2026-04-28 00:04 | 60.17972 | 5.25618 | 2308 ft | 162 kts | 350° |
| 2026-04-28 00:04 | 60.20078 | 5.24920 | 1852 ft | 142 kts | 351° |
| 2026-04-28 00:04 | 60.21018 | 5.24607 | 1659 ft | 133 kts | 351° |
| 2026-04-28 00:05 | 60.21913 | 5.24304 | 1487 ft | 130 kts | 350° |
| 2026-04-28 00:05 | 60.22809 | 5.24003 | 1320 ft | 131 kts | 350° |
| 2026-04-28 00:05 | 60.23714 | 5.23700 | 1134 ft | 132 kts | 350° |
| 2026-04-28 00:05 | 60.24315 | 5.23500 | 1000 ft | 132 kts | 351° |
| 2026-04-28 00:06 | 60.25518 | 5.23094 | 755 ft | 130 kts | 350° |
| 2026-04-28 00:06 | 60.26398 | 5.22796 | 564 ft | 130 kts | 349° |
| 2026-04-28 00:06 | 60.27282 | 5.22484 | 368 ft | 128 kts | 351° |
| 2026-04-28 00:06 | 60.28156 | 5.22206 | 221 ft | 127 kts | 351° |
| 2026-04-28 00:07 | 60.28993 | 5.21918 | 164 ft | 110 kts | 349° |
| 2026-04-28 00:07 | 60.29613 | 5.21723 | 146 ft | 62 kts | 350° |
| 2026-04-28 00:07 | 60.29896 | 5.21628 | 151 ft | 37 kts | 350° |
| 2026-04-28 00:07 | 60.30031 | 5.21628 | 157 ft | 12 kts | 45° |
| 2026-04-28 00:08 | 60.30042 | 5.21788 | 159 ft | 11 kts | 83° |
| 2026-04-28 00:08 | 60.29993 | 5.21913 | 156 ft | 16 kts | 167° |
| 2026-04-28 00:08 | 60.29862 | 5.21958 | 151 ft | 23 kts | 169° |
| 2026-04-28 00:08 | 60.29686 | 5.22025 | 149 ft | 28 kts | 169° |
| 2026-04-28 00:09 | 60.29496 | 5.22095 | 155 ft | 26 kts | 171° |
| 2026-04-28 00:09 | 60.29318 | 5.22148 | 163 ft | 25 kts | 171° |
| 2026-04-28 00:09 | 60.29151 | 5.22199 | 170 ft | 23 kts | 171° |
| 2026-04-28 00:09 | 60.28994 | 5.22264 | 172 ft | 24 kts | 171° |
| 2026-04-28 00:10 | 60.28846 | 5.22307 | 169 ft | 14 kts | 168° |
| 2026-04-28 00:10 | 60.28817 | 5.22402 | 173 ft | 6 kts | 67° |
| 2026-04-28 00:10 | 60.28838 | 5.22479 | 174 ft | 7 kts | 60° |
| 2026-04-28 00:10 | 60.28863 | 5.22565 | 174 ft | 0 kts | 61° |